sensor_id;sensor_type;location;lat;lon;timestamp;pressure;altitude;pressure_sealevel;temperature;humidity
9746;BME280;4912;50.836;12.958;2023-03-03T00:02:20;98210.63;;;2.65;64.58
9746;BME280;4912;50.836;12.958;2023-03-03T00:04:51;98216.47;;;2.67;64.50
9746;BME280;4912;50.836;12.958;2023-03-03T00:07:21;98217.63;;;2.70;65.18
9746;BME280;4912;50.836;12.958;2023-03-03T00:09:51;98207.44;;;2.74;65.23
9746;BME280;4912;50.836;12.958;2023-03-03T00:12:26;98206.22;;;2.78;65.03
9746;BME280;4912;50.836;12.958;2023-03-03T00:14:59;98207.72;;;2.86;64.80
9746;BME280;4912;50.836;12.958;2023-03-03T00:17:30;98200.25;;;2.91;64.95
9746;BME280;4912;50.836;12.958;2023-03-03T00:20:22;98205.63;;;2.98;65.31
9746;BME280;4912;50.836;12.958;2023-03-03T00:23:08;98205.16;;;3.06;65.57
9746;BME280;4912;50.836;12.958;2023-03-03T00:25:45;98214.03;;;3.14;65.52
9746;BME280;4912;50.836;12.958;2023-03-03T00:28:23;98208.53;;;3.17;65.71
9746;BME280;4912;50.836;12.958;2023-03-03T00:31:00;98222.88;;;3.25;66.03
9746;BME280;4912;50.836;12.958;2023-03-03T00:33:32;98217.00;;;3.26;67.33
9746;BME280;4912;50.836;12.958;2023-03-03T00:36:27;98213.50;;;3.26;68.52
9746;BME280;4912;50.836;12.958;2023-03-03T00:39:25;98217.41;;;3.25;71.56
9746;BME280;4912;50.836;12.958;2023-03-03T00:41:58;98216.56;;;3.32;73.56
9746;BME280;4912;50.836;12.958;2023-03-03T00:44:39;98225.13;;;3.34;74.21
9746;BME280;4912;50.836;12.958;2023-03-03T00:47:25;98219.59;;;3.37;74.34
9746;BME280;4912;50.836;12.958;2023-03-03T00:50:17;98218.03;;;3.40;75.37
9746;BME280;4912;50.836;12.958;2023-03-03T00:53:03;98218.38;;;3.42;75.70
9746;BME280;4912;50.836;12.958;2023-03-03T00:55:35;98211.31;;;3.44;76.21
9746;BME280;4912;50.836;12.958;2023-03-03T00:58:06;98214.06;;;3.44;77.10
9746;BME280;4912;50.836;12.958;2023-03-03T01:00:43;98221.47;;;3.47;77.82
9746;BME280;4912;50.836;12.958;2023-03-03T01:03:21;98214.78;;;3.48;78.44
9746;BME280;4912;50.836;12.958;2023-03-03T01:05:53;98216.66;;;3.55;79.05
9746;BME280;4912;50.836;12.958;2023-03-03T01:08:24;98213.50;;;3.56;79.26
9746;BME280;4912;50.836;12.958;2023-03-03T01:10:56;98216.25;;;3.56;79.48
9746;BME280;4912;50.836;12.958;2023-03-03T01:13:31;98209.19;;;3.59;79.58
9746;BME280;4912;50.836;12.958;2023-03-03T01:16:05;98204.91;;;3.58;79.85
9746;BME280;4912;50.836;12.958;2023-03-03T01:18:38;98211.47;;;3.64;79.99
9746;BME280;4912;50.836;12.958;2023-03-03T01:21:09;98199.34;;;3.65;80.75
9746;BME280;4912;50.836;12.958;2023-03-03T01:23:40;98206.34;;;3.66;82.22
9746;BME280;4912;50.836;12.958;2023-03-03T01:26:10;98208.28;;;3.65;82.48
9746;BME280;4912;50.836;12.958;2023-03-03T01:28:41;98202.81;;;3.65;83.34
9746;BME280;4912;50.836;12.958;2023-03-03T01:31:11;98204.38;;;3.66;83.75
9746;BME280;4912;50.836;12.958;2023-03-03T01:33:44;98212.97;;;3.68;84.06
9746;BME280;4912;50.836;12.958;2023-03-03T01:36:14;98208.25;;;3.69;83.48
9746;BME280;4912;50.836;12.958;2023-03-03T01:38:45;98204.38;;;3.66;84.16
9746;BME280;4912;50.836;12.958;2023-03-03T01:41:15;98209.06;;;3.66;84.52
9746;BME280;4912;50.836;12.958;2023-03-03T01:43:49;98191.88;;;3.65;85.03
9746;BME280;4912;50.836;12.958;2023-03-03T01:46:45;98196.94;;;3.67;85.18
9746;BME280;4912;50.836;12.958;2023-03-03T01:49:24;98196.53;;;3.68;85.04
9746;BME280;4912;50.836;12.958;2023-03-03T01:51:59;98193.44;;;3.66;84.89
9746;BME280;4912;50.836;12.958;2023-03-03T01:54:37;98198.97;;;3.63;85.14
9746;BME280;4912;50.836;12.958;2023-03-03T01:57:17;98203.66;;;3.62;85.10
9746;BME280;4912;50.836;12.958;2023-03-03T01:59:55;98211.88;;;3.62;85.93
9746;BME280;4912;50.836;12.958;2023-03-03T02:02:27;98215.31;;;3.66;85.65
9746;BME280;4912;50.836;12.958;2023-03-03T02:05:01;98221.25;;;3.61;85.60
9746;BME280;4912;50.836;12.958;2023-03-03T02:07:32;98222.91;;;3.55;85.68
9746;BME280;4912;50.836;12.958;2023-03-03T02:10:06;98218.72;;;3.47;86.14
9746;BME280;4912;50.836;12.958;2023-03-03T02:12:42;98211.22;;;3.51;86.38
9746;BME280;4912;50.836;12.958;2023-03-03T02:15:24;98214.75;;;3.52;86.24
9746;BME280;4912;50.836;12.958;2023-03-03T02:17:57;98213.19;;;3.51;86.39
9746;BME280;4912;50.836;12.958;2023-03-03T02:20:41;98210.50;;;3.47;86.62
9746;BME280;4912;50.836;12.958;2023-03-03T02:23:21;98207.03;;;3.43;86.34
9746;BME280;4912;50.836;12.958;2023-03-03T02:26:06;98199.41;;;3.27;85.95
9746;BME280;4912;50.836;12.958;2023-03-03T02:28:40;98193.34;;;3.13;87.17
9746;BME280;4912;50.836;12.958;2023-03-03T02:31:16;98193.72;;;3.15;87.82
9746;BME280;4912;50.836;12.958;2023-03-03T02:33:49;98188.63;;;3.17;87.34
9746;BME280;4912;50.836;12.958;2023-03-03T02:36:22;98182.38;;;3.16;86.83
9746;BME280;4912;50.836;12.958;2023-03-03T02:38:59;98186.44;;;3.05;86.55
9746;BME280;4912;50.836;12.958;2023-03-03T02:41:39;98178.69;;;3.00;86.90
9746;BME280;4912;50.836;12.958;2023-03-03T02:44:13;98182.66;;;2.92;87.07
9746;BME280;4912;50.836;12.958;2023-03-03T02:46:48;98184.66;;;2.87;87.75
9746;BME280;4912;50.836;12.958;2023-03-03T02:49:22;98185.91;;;2.79;87.31
9746;BME280;4912;50.836;12.958;2023-03-03T02:51:54;98196.06;;;2.79;88.07
9746;BME280;4912;50.836;12.958;2023-03-03T02:54:26;98195.28;;;2.78;88.33
9746;BME280;4912;50.836;12.958;2023-03-03T02:57:04;98192.22;;;2.76;87.89
9746;BME280;4912;50.836;12.958;2023-03-03T02:59:35;98198.00;;;2.82;87.58
9746;BME280;4912;50.836;12.958;2023-03-03T03:02:11;98200.63;;;2.89;87.84
9746;BME280;4912;50.836;12.958;2023-03-03T03:04:42;98202.16;;;2.94;87.84
9746;BME280;4912;50.836;12.958;2023-03-03T03:07:17;98201.00;;;2.91;86.12
9746;BME280;4912;50.836;12.958;2023-03-03T03:09:47;98195.16;;;2.93;86.08
9746;BME280;4912;50.836;12.958;2023-03-03T03:12:20;98188.84;;;2.96;85.75
9746;BME280;4912;50.836;12.958;2023-03-03T03:14:54;98193.88;;;3.01;85.89
9746;BME280;4912;50.836;12.958;2023-03-03T03:17:25;98199.72;;;3.03;85.80
9746;BME280;4912;50.836;12.958;2023-03-03T03:19:58;98201.66;;;3.06;85.97
9746;BME280;4912;50.836;12.958;2023-03-03T03:22:29;98196.91;;;3.10;85.88
9746;BME280;4912;50.836;12.958;2023-03-03T03:24:59;98196.84;;;3.13;84.82
9746;BME280;4912;50.836;12.958;2023-03-03T03:27:33;98202.44;;;3.03;84.33
9746;BME280;4912;50.836;12.958;2023-03-03T03:30:05;98217.94;;;2.79;84.44
9746;BME280;4912;50.836;12.958;2023-03-03T03:32:36;98221.94;;;2.67;85.35
9746;BME280;4912;50.836;12.958;2023-03-03T03:35:08;98225.78;;;2.73;85.78
9746;BME280;4912;50.836;12.958;2023-03-03T03:37:39;98210.91;;;2.78;85.85
9746;BME280;4912;50.836;12.958;2023-03-03T03:40:11;98217.09;;;2.85;85.84
9746;BME280;4912;50.836;12.958;2023-03-03T03:42:44;98209.59;;;2.89;85.92
9746;BME280;4912;50.836;12.958;2023-03-03T03:45:15;98202.56;;;2.92;86.03
9746;BME280;4912;50.836;12.958;2023-03-03T03:47:46;98204.56;;;2.88;86.02
9746;BME280;4912;50.836;12.958;2023-03-03T03:50:17;98207.97;;;2.96;85.75
9746;BME280;4912;50.836;12.958;2023-03-03T03:52:48;98197.44;;;2.98;85.75
9746;BME280;4912;50.836;12.958;2023-03-03T03:55:19;98202.91;;;2.98;85.61
9746;BME280;4912;50.836;12.958;2023-03-03T03:57:52;98208.44;;;2.91;84.74
9746;BME280;4912;50.836;12.958;2023-03-03T04:00:24;98200.75;;;2.82;85.36
9746;BME280;4912;50.836;12.958;2023-03-03T04:02:58;98212.53;;;2.72;85.71
9746;BME280;4912;50.836;12.958;2023-03-03T04:05:29;98206.72;;;2.66;86.13
9746;BME280;4912;50.836;12.958;2023-03-03T04:08:00;98206.72;;;2.66;86.36
9746;BME280;4912;50.836;12.958;2023-03-03T04:10:30;98210.31;;;2.60;86.69
9746;BME280;4912;50.836;12.958;2023-03-03T04:13:05;98201.78;;;2.54;87.10
9746;BME280;4912;50.836;12.958;2023-03-03T04:15:36;98208.44;;;2.53;87.02
9746;BME280;4912;50.836;12.958;2023-03-03T04:18:06;98211.16;;;2.53;87.16
9746;BME280;4912;50.836;12.958;2023-03-03T04:20:40;98209.22;;;2.50;87.35
9746;BME280;4912;50.836;12.958;2023-03-03T04:23:11;98211.97;;;2.50;87.31
9746;BME280;4912;50.836;12.958;2023-03-03T04:25:41;98219.78;;;2.48;87.52
9746;BME280;4912;50.836;12.958;2023-03-03T04:28:16;98229.56;;;2.45;87.43
9746;BME280;4912;50.836;12.958;2023-03-03T04:30:49;98229.91;;;2.47;87.56
9746;BME280;4912;50.836;12.958;2023-03-03T04:33:20;98231.53;;;2.45;87.18
9746;BME280;4912;50.836;12.958;2023-03-03T04:35:51;98224.06;;;2.49;87.40
9746;BME280;4912;50.836;12.958;2023-03-03T04:38:22;98233.84;;;2.46;86.49
9746;BME280;4912;50.836;12.958;2023-03-03T04:40:55;98237.72;;;2.49;86.50
9746;BME280;4912;50.836;12.958;2023-03-03T04:43:30;98238.09;;;2.51;86.66
9746;BME280;4912;50.836;12.958;2023-03-03T04:46:02;98240.78;;;2.58;86.51
9746;BME280;4912;50.836;12.958;2023-03-03T04:48:37;98234.53;;;2.58;85.88
9746;BME280;4912;50.836;12.958;2023-03-03T04:51:08;98232.19;;;2.56;86.21
9746;BME280;4912;50.836;12.958;2023-03-03T04:53:39;98235.75;;;2.53;86.33
9746;BME280;4912;50.836;12.958;2023-03-03T04:56:12;98247.44;;;2.54;87.21
9746;BME280;4912;50.836;12.958;2023-03-03T04:58:45;98247.41;;;2.57;87.20
9746;BME280;4912;50.836;12.958;2023-03-03T05:01:16;98246.25;;;2.58;86.75
9746;BME280;4912;50.836;12.958;2023-03-03T05:03:46;98243.56;;;2.47;86.43
9746;BME280;4912;50.836;12.958;2023-03-03T05:06:17;98246.34;;;2.44;86.67
9746;BME280;4912;50.836;12.958;2023-03-03T05:08:47;98244.44;;;2.37;87.01
9746;BME280;4912;50.836;12.958;2023-03-03T05:11:18;98251.84;;;2.40;87.25
9746;BME280;4912;50.836;12.958;2023-03-03T05:13:51;98250.63;;;2.45;87.25
9746;BME280;4912;50.836;12.958;2023-03-03T05:16:22;98245.56;;;2.47;87.08
9746;BME280;4912;50.836;12.958;2023-03-03T05:18:52;98257.22;;;2.47;86.94
9746;BME280;4912;50.836;12.958;2023-03-03T05:21:22;98263.47;;;2.52;86.25
9746;BME280;4912;50.836;12.958;2023-03-03T05:23:53;98271.66;;;2.52;86.89
9746;BME280;4912;50.836;12.958;2023-03-03T05:26:23;98267.31;;;2.54;86.95
9746;BME280;4912;50.836;12.958;2023-03-03T05:28:56;98277.06;;;2.59;87.00
9746;BME280;4912;50.836;12.958;2023-03-03T05:31:27;98271.16;;;2.64;86.86
9746;BME280;4912;50.836;12.958;2023-03-03T05:33:57;98278.19;;;2.61;86.27
9746;BME280;4912;50.836;12.958;2023-03-03T05:36:29;98278.22;;;2.58;86.50
9746;BME280;4912;50.836;12.958;2023-03-03T05:38:59;98292.28;;;2.56;87.02
9746;BME280;4912;50.836;12.958;2023-03-03T05:41:30;98288.41;;;2.54;87.22
9746;BME280;4912;50.836;12.958;2023-03-03T05:44:05;98296.22;;;2.52;87.40
9746;BME280;4912;50.836;12.958;2023-03-03T05:46:36;98291.97;;;2.47;87.62
9746;BME280;4912;50.836;12.958;2023-03-03T05:49:06;98286.88;;;2.49;87.51
9746;BME280;4912;50.836;12.958;2023-03-03T05:51:37;98277.56;;;2.46;87.24
9746;BME280;4912;50.836;12.958;2023-03-03T05:54:07;98286.53;;;2.43;87.31
9746;BME280;4912;50.836;12.958;2023-03-03T05:56:38;98277.59;;;2.39;87.19
9746;BME280;4912;50.836;12.958;2023-03-03T05:59:11;98283.50;;;2.34;87.83
9746;BME280;4912;50.836;12.958;2023-03-03T06:01:43;98280.75;;;2.34;87.66
9746;BME280;4912;50.836;12.958;2023-03-03T06:04:14;98281.91;;;2.37;87.71
9746;BME280;4912;50.836;12.958;2023-03-03T06:06:44;98276.81;;;2.39;87.83
9746;BME280;4912;50.836;12.958;2023-03-03T06:09:15;98279.94;;;2.41;87.81
9746;BME280;4912;50.836;12.958;2023-03-03T06:11:47;98269.75;;;2.45;87.58
9746;BME280;4912;50.836;12.958;2023-03-03T06:14:21;98281.41;;;2.49;87.59
9746;BME280;4912;50.836;12.958;2023-03-03T06:16:56;98288.81;;;2.48;87.54
9746;BME280;4912;50.836;12.958;2023-03-03T06:19:26;98290.00;;;2.51;87.82
9746;BME280;4912;50.836;12.958;2023-03-03T06:21:56;98278.63;;;2.56;87.61
9746;BME280;4912;50.836;12.958;2023-03-03T06:24:27;98289.59;;;2.53;87.08
9746;BME280;4912;50.836;12.958;2023-03-03T06:26:58;98284.97;;;2.46;86.98
9746;BME280;4912;50.836;12.958;2023-03-03T06:29:32;98301.34;;;2.42;87.70
9746;BME280;4912;50.836;12.958;2023-03-03T06:32:02;98298.63;;;2.46;88.07
9746;BME280;4912;50.836;12.958;2023-03-03T06:34:34;98298.19;;;2.51;88.37
9746;BME280;4912;50.836;12.958;2023-03-03T06:37:04;98294.63;;;2.54;87.91
9746;BME280;4912;50.836;12.958;2023-03-03T06:39:35;98292.72;;;2.51;88.15
9746;BME280;4912;50.836;12.958;2023-03-03T06:42:07;98280.69;;;2.45;87.97
9746;BME280;4912;50.836;12.958;2023-03-03T06:44:40;98286.53;;;2.47;88.64
9746;BME280;4912;50.836;12.958;2023-03-03T06:47:11;98289.16;;;2.54;88.34
9746;BME280;4912;50.836;12.958;2023-03-03T06:49:45;98291.56;;;2.52;88.12
9746;BME280;4912;50.836;12.958;2023-03-03T06:52:18;98289.59;;;2.49;88.09
9746;BME280;4912;50.836;12.958;2023-03-03T06:54:53;98276.00;;;2.45;88.28
9746;BME280;4912;50.836;12.958;2023-03-03T06:57:26;98282.59;;;2.48;88.39
9746;BME280;4912;50.836;12.958;2023-03-03T07:00:14;98287.13;;;2.17;89.63
9746;BME280;4912;50.836;12.958;2023-03-03T07:02:46;98285.91;;;2.18;90.15
9746;BME280;4912;50.836;12.958;2023-03-03T07:05:17;98294.41;;;2.31;90.13
9746;BME280;4912;50.836;12.958;2023-03-03T07:07:48;98294.38;;;2.38;89.54
9746;BME280;4912;50.836;12.958;2023-03-03T07:10:22;98295.09;;;2.45;89.36
9746;BME280;4912;50.836;12.958;2023-03-03T07:12:57;98298.66;;;2.39;88.91
9746;BME280;4912;50.836;12.958;2023-03-03T07:15:40;98307.25;;;2.37;89.65
9746;BME280;4912;50.836;12.958;2023-03-03T07:18:29;98305.31;;;2.38;89.63
9746;BME280;4912;50.836;12.958;2023-03-03T07:21:13;98309.91;;;2.48;89.73
9746;BME280;4912;50.836;12.958;2023-03-03T07:23:49;98305.56;;;2.54;88.71
9746;BME280;4912;50.836;12.958;2023-03-03T07:26:25;98313.69;;;2.65;88.28
9746;BME280;4912;50.836;12.958;2023-03-03T07:28:59;98312.91;;;2.64;88.02
9746;BME280;4912;50.836;12.958;2023-03-03T07:31:34;98317.94;;;2.66;88.27
9746;BME280;4912;50.836;12.958;2023-03-03T07:34:16;98317.16;;;2.69;87.44
9746;BME280;4912;50.836;12.958;2023-03-03T07:36:53;98329.75;;;2.59;86.48
9746;BME280;4912;50.836;12.958;2023-03-03T07:39:30;98337.50;;;2.64;86.55
9746;BME280;4912;50.836;12.958;2023-03-03T07:42:15;98356.19;;;2.69;86.57
9746;BME280;4912;50.836;12.958;2023-03-03T07:45:21;98349.50;;;2.74;86.04
9746;BME280;4912;50.836;12.958;2023-03-03T07:48:05;98346.38;;;2.75;85.87
9746;BME280;4912;50.836;12.958;2023-03-03T07:50:44;98350.28;;;2.74;86.17
9746;BME280;4912;50.836;12.958;2023-03-03T07:53:22;98348.38;;;2.68;86.34
9746;BME280;4912;50.836;12.958;2023-03-03T07:55:57;98358.53;;;2.71;86.75
9746;BME280;4912;50.836;12.958;2023-03-03T07:58:36;98347.22;;;2.69;86.18
9746;BME280;4912;50.836;12.958;2023-03-03T08:01:35;98342.88;;;2.71;85.88
9746;BME280;4912;50.836;12.958;2023-03-03T08:04:19;98349.13;;;2.75;85.57
9746;BME280;4912;50.836;12.958;2023-03-03T08:06:57;98349.06;;;2.82;85.40
9746;BME280;4912;50.836;12.958;2023-03-03T08:09:49;98358.50;;;2.74;84.87
9746;BME280;4912;50.836;12.958;2023-03-03T08:12:39;98356.19;;;2.66;85.67
9746;BME280;4912;50.836;12.958;2023-03-03T08:15:21;98359.72;;;2.66;85.95
9746;BME280;4912;50.836;12.958;2023-03-03T08:17:54;98361.25;;;2.71;86.42
9746;BME280;4912;50.836;12.958;2023-03-03T08:20:52;98359.34;;;2.64;87.39
9746;BME280;4912;50.836;12.958;2023-03-03T08:23:24;98358.91;;;2.69;87.14
9746;BME280;4912;50.836;12.958;2023-03-03T08:25:54;98358.88;;;2.73;87.14
9746;BME280;4912;50.836;12.958;2023-03-03T08:28:25;98354.94;;;2.77;86.89
9746;BME280;4912;50.836;12.958;2023-03-03T08:30:55;98357.72;;;2.74;86.84
9746;BME280;4912;50.836;12.958;2023-03-03T08:33:42;98351.47;;;2.73;87.62
9746;BME280;4912;50.836;12.958;2023-03-03T08:36:16;98354.53;;;2.82;87.80
9746;BME280;4912;50.836;12.958;2023-03-03T08:38:46;98353.31;;;2.87;87.30
9746;BME280;4912;50.836;12.958;2023-03-03T08:41:16;98361.53;;;2.83;88.24
9746;BME280;4912;50.836;12.958;2023-03-03T08:43:47;98360.78;;;2.79;88.05
9746;BME280;4912;50.836;12.958;2023-03-03T08:46:17;98362.78;;;2.75;88.11
9746;BME280;4912;50.836;12.958;2023-03-03T08:48:53;98365.47;;;2.82;88.36
9746;BME280;4912;50.836;12.958;2023-03-03T08:51:26;98368.97;;;2.79;88.16
9746;BME280;4912;50.836;12.958;2023-03-03T08:54:00;98359.63;;;2.77;88.42
9746;BME280;4912;50.836;12.958;2023-03-03T08:56:30;98370.22;;;2.71;88.77
9746;BME280;4912;50.836;12.958;2023-03-03T08:59:01;98365.53;;;2.72;88.44
9746;BME280;4912;50.836;12.958;2023-03-03T09:01:32;98372.94;;;2.71;88.97
9746;BME280;4912;50.836;12.958;2023-03-03T09:04:04;98374.94;;;2.67;89.69
9746;BME280;4912;50.836;12.958;2023-03-03T09:06:37;98366.34;;;2.69;90.27
9746;BME280;4912;50.836;12.958;2023-03-03T09:09:07;98369.81;;;2.73;90.09
9746;BME280;4912;50.836;12.958;2023-03-03T09:11:37;98365.53;;;2.72;90.11
9746;BME280;4912;50.836;12.958;2023-03-03T09:14:11;98360.75;;;2.83;90.44
9746;BME280;4912;50.836;12.958;2023-03-03T09:16:49;98372.41;;;2.91;89.85
9746;BME280;4912;50.836;12.958;2023-03-03T09:19:23;98372.41;;;2.94;89.66
9746;BME280;4912;50.836;12.958;2023-03-03T09:22:01;98377.44;;;2.96;89.44
9746;BME280;4912;50.836;12.958;2023-03-03T09:24:41;98376.25;;;2.97;89.32
9746;BME280;4912;50.836;12.958;2023-03-03T09:27:16;98384.00;;;3.05;88.89
9746;BME280;4912;50.836;12.958;2023-03-03T09:29:48;98385.97;;;3.05;88.30
9746;BME280;4912;50.836;12.958;2023-03-03T09:32:30;98385.97;;;3.05;88.54
9746;BME280;4912;50.836;12.958;2023-03-03T09:35:25;98383.72;;;2.93;88.12
9746;BME280;4912;50.836;12.958;2023-03-03T09:38:17;98384.84;;;2.99;88.58
9746;BME280;4912;50.836;12.958;2023-03-03T09:44:10;98387.94;;;3.01;88.62
9746;BME280;4912;50.836;12.958;2023-03-03T09:47:19;98391.09;;;2.99;88.53
9746;BME280;4912;50.836;12.958;2023-03-03T09:50:16;98389.53;;;2.98;88.29
9746;BME280;4912;50.836;12.958;2023-03-03T09:53:02;98398.81;;;3.08;88.88
9746;BME280;4912;50.836;12.958;2023-03-03T09:55:50;98397.28;;;3.03;87.83
9746;BME280;4912;50.836;12.958;2023-03-03T09:58:44;98385.97;;;3.05;87.93
9746;BME280;4912;50.836;12.958;2023-03-03T10:01:47;98395.00;;;2.95;88.40
9746;BME280;4912;50.836;12.958;2023-03-03T10:08:01;98397.69;;;3.05;88.32
9746;BME280;4912;50.836;12.958;2023-03-03T10:10:47;98404.28;;;3.08;87.48
9746;BME280;4912;50.836;12.958;2023-03-03T10:13:40;98398.81;;;3.08;87.81
9746;BME280;4912;50.836;12.958;2023-03-03T10:16:33;98405.81;;;3.12;87.15
9746;BME280;4912;50.836;12.958;2023-03-03T10:19:19;98408.81;;;3.25;86.69
9746;BME280;4912;50.836;12.958;2023-03-03T10:22:15;98411.19;;;3.23;86.31
9746;BME280;4912;50.836;12.958;2023-03-03T10:25:06;98410.41;;;3.22;85.99
9746;BME280;4912;50.836;12.958;2023-03-03T10:27:57;98397.03;;;3.35;85.62
9746;BME280;4912;50.836;12.958;2023-03-03T10:30:50;98402.06;;;3.37;85.17
9746;BME280;4912;50.836;12.958;2023-03-03T10:33:43;98414.22;;;3.36;84.45
9746;BME280;4912;50.836;12.958;2023-03-03T10:36:38;98400.06;;;3.44;82.91
9746;BME280;4912;50.836;12.958;2023-03-03T10:39:37;98405.53;;;3.44;80.81
9746;BME280;4912;50.836;12.958;2023-03-03T10:42:25;98413.38;;;3.39;80.16
9746;BME280;4912;50.836;12.958;2023-03-03T10:45:44;98407.97;;;3.35;81.26
9746;BME280;4912;50.836;12.958;2023-03-03T10:48:39;98402.84;;;3.37;82.29
9746;BME280;4912;50.836;12.958;2023-03-03T10:51:23;98409.09;;;3.38;83.20
9746;BME280;4912;50.836;12.958;2023-03-03T10:54:06;98404.78;;;3.40;83.02
9746;BME280;4912;50.836;12.958;2023-03-03T10:56:49;98422.31;;;3.46;82.59
9746;BME280;4912;50.836;12.958;2023-03-03T10:59:51;98414.06;;;3.53;81.89
9746;BME280;4912;50.836;12.958;2023-03-03T11:02:39;98412.06;;;3.54;81.71
9746;BME280;4912;50.836;12.958;2023-03-03T11:05:28;98405.78;;;3.57;81.19
9746;BME280;4912;50.836;12.958;2023-03-03T11:08:06;98411.53;;;3.69;80.86
9746;BME280;4912;50.836;12.958;2023-03-03T11:10:50;98406.47;;;3.68;79.42
9746;BME280;4912;50.836;12.958;2023-03-03T11:13:30;98411.53;;;3.69;78.81
9746;BME280;4912;50.836;12.958;2023-03-03T11:16:15;98409.97;;;3.68;78.39
9746;BME280;4912;50.836;12.958;2023-03-03T11:19:04;98414.53;;;3.79;79.08
9746;BME280;4912;50.836;12.958;2023-03-03T11:21:55;98409.84;;;3.83;78.71
9746;BME280;4912;50.836;12.958;2023-03-03T11:24:38;98401.63;;;3.83;77.89
9746;BME280;4912;50.836;12.958;2023-03-03T11:30:46;98414.06;;;3.87;79.42
9746;BME280;4912;50.836;12.958;2023-03-03T11:33:33;98408.59;;;3.87;79.79
9746;BME280;4912;50.836;12.958;2023-03-03T11:36:17;98404.44;;;3.76;79.03
9746;BME280;4912;50.836;12.958;2023-03-03T11:38:56;98411.47;;;3.73;79.21
9746;BME280;4912;50.836;12.958;2023-03-03T11:41:35;98398.66;;;3.66;79.47
9746;BME280;4912;50.836;12.958;2023-03-03T11:44:18;98397.19;;;3.58;79.33
9746;BME280;4912;50.836;12.958;2023-03-03T11:46:54;98402.66;;;3.58;79.89
9746;BME280;4912;50.836;12.958;2023-03-03T11:49:32;98393.66;;;3.58;80.05
9746;BME280;4912;50.836;12.958;2023-03-03T11:52:21;98392.50;;;3.55;80.19
9746;BME280;4912;50.836;12.958;2023-03-03T11:55:00;98390.59;;;3.52;79.49
9746;BME280;4912;50.836;12.958;2023-03-03T11:57:39;98396.88;;;3.49;79.41
9746;BME280;4912;50.836;12.958;2023-03-03T12:00:24;98400.72;;;3.55;78.87
9746;BME280;4912;50.836;12.958;2023-03-03T12:03:08;98385.88;;;3.56;78.60
9746;BME280;4912;50.836;12.958;2023-03-03T12:05:53;98383.41;;;3.65;78.02
9746;BME280;4912;50.836;12.958;2023-03-03T12:08:38;98381.78;;;3.71;77.66
9746;BME280;4912;50.836;12.958;2023-03-03T12:11:20;98380.94;;;3.78;77.71
9746;BME280;4912;50.836;12.958;2023-03-03T12:13:59;98370.69;;;3.86;77.55
9746;BME280;4912;50.836;12.958;2023-03-03T12:16:39;98376.16;;;3.86;77.32
9746;BME280;4912;50.836;12.958;2023-03-03T12:19:34;98369.19;;;3.81;76.70
9746;BME280;4912;50.836;12.958;2023-03-03T12:22:36;98385.22;;;3.79;76.73
9746;BME280;4912;50.836;12.958;2023-03-03T12:25:22;98384.03;;;3.80;77.05
9746;BME280;4912;50.836;12.958;2023-03-03T12:28:04;98381.03;;;3.71;76.95
9746;BME280;4912;50.836;12.958;2023-03-03T12:30:48;98384.97;;;3.66;76.72
9746;BME280;4912;50.836;12.958;2023-03-03T12:33:41;98377.88;;;3.72;77.09
9746;BME280;4912;50.836;12.958;2023-03-03T12:36:23;98389.19;;;3.75;77.69
9746;BME280;4912;50.836;12.958;2023-03-03T12:39:22;98383.41;;;3.65;76.81
9746;BME280;4912;50.836;12.958;2023-03-03T12:42:11;98382.69;;;3.61;77.13
9746;BME280;4912;50.836;12.958;2023-03-03T12:44:55;98371.72;;;3.61;77.28
9746;BME280;4912;50.836;12.958;2023-03-03T12:47:37;98373.28;;;3.62;77.01
9746;BME280;4912;50.836;12.958;2023-03-03T12:50:24;98372.47;;;3.65;77.64
9746;BME280;4912;50.836;12.958;2023-03-03T12:53:06;98368.28;;;3.54;78.05
9746;BME280;4912;50.836;12.958;2023-03-03T12:55:48;98369.31;;;3.33;77.97
9746;BME280;4912;50.836;12.958;2023-03-03T12:58:34;98370.84;;;3.34;78.92
9746;BME280;4912;50.836;12.958;2023-03-03T13:01:21;98368.91;;;3.35;78.47
9746;BME280;4912;50.836;12.958;2023-03-03T13:04:05;98370.41;;;3.39;77.84
9746;BME280;4912;50.836;12.958;2023-03-03T13:06:43;98372.75;;;3.41;77.36
9746;BME280;4912;50.836;12.958;2023-03-03T13:09:27;98364.22;;;3.35;77.10
9746;BME280;4912;50.836;12.958;2023-03-03T13:12:21;98357.19;;;3.34;77.14
9746;BME280;4912;50.836;12.958;2023-03-03T13:15:18;98355.19;;;3.38;76.85
9746;BME280;4912;50.836;12.958;2023-03-03T13:18:12;98352.97;;;3.26;76.85
9746;BME280;4912;50.836;12.958;2023-03-03T13:20:50;98353.63;;;3.37;76.96
9746;BME280;4912;50.836;12.958;2023-03-03T13:23:34;98359.31;;;3.16;77.67
9746;BME280;4912;50.836;12.958;2023-03-03T13:26:15;98356.50;;;3.23;77.92
9746;BME280;4912;50.836;12.958;2023-03-03T13:29:03;98357.91;;;3.38;77.29
9746;BME280;4912;50.836;12.958;2023-03-03T13:31:46;98357.66;;;3.25;77.55
9746;BME280;4912;50.836;12.958;2023-03-03T13:34:29;98356.03;;;3.32;77.33
9746;BME280;4912;50.836;12.958;2023-03-03T13:37:14;98346.34;;;3.23;77.16
9746;BME280;4912;50.836;12.958;2023-03-03T13:39:55;98353.63;;;3.37;77.67
9746;BME280;4912;50.836;12.958;2023-03-03T13:42:33;98352.38;;;3.45;77.06
9746;BME280;4912;50.836;12.958;2023-03-03T13:45:17;98358.56;;;3.53;76.91
9746;BME280;4912;50.836;12.958;2023-03-03T13:48:02;98360.19;;;3.47;75.54
9746;BME280;4912;50.836;12.958;2023-03-03T13:50:42;98372.38;;;3.39;75.71
9746;BME280;4912;50.836;12.958;2023-03-03T13:53:36;98369.69;;;3.32;74.86
9746;BME280;4912;50.836;12.958;2023-03-03T13:56:25;98371.59;;;3.38;75.21
9746;BME280;4912;50.836;12.958;2023-03-03T13:59:07;98360.69;;;3.35;75.01
9746;BME280;4912;50.836;12.958;2023-03-03T14:01:54;98358.75;;;3.35;74.78
9746;BME280;4912;50.836;12.958;2023-03-03T14:04:39;98360.72;;;3.31;74.89
9746;BME280;4912;50.836;12.958;2023-03-03T14:07:20;98353.78;;;3.23;75.70
9746;BME280;4912;50.836;12.958;2023-03-03T14:10:00;98346.75;;;3.22;75.34
9746;BME280;4912;50.836;12.958;2023-03-03T14:12:39;98352.31;;;3.11;75.36
9746;BME280;4912;50.836;12.958;2023-03-03T14:15:18;98344.03;;;3.22;76.19
9746;BME280;4912;50.836;12.958;2023-03-03T14:18:05;98347.16;;;3.20;76.38
9746;BME280;4912;50.836;12.958;2023-03-03T14:20:50;98348.06;;;3.07;75.23
9746;BME280;4912;50.836;12.958;2023-03-03T14:23:25;98345.66;;;3.12;75.41
9746;BME280;4912;50.836;12.958;2023-03-03T14:26:07;98347.13;;;3.24;75.41
9746;BME280;4912;50.836;12.958;2023-03-03T14:28:40;98332.63;;;3.27;74.89
9746;BME280;4912;50.836;12.958;2023-03-03T14:31:19;98329.13;;;3.26;73.89
9746;BME280;4912;50.836;12.958;2023-03-03T14:33:58;98332.41;;;3.11;72.86